Terminal Aerodrome Forecast
Issued by NWS

Home | Current Version | Previous Version | Text Only | Print | Product List | Glossary On
Versions: 1 2 3 4 5 6 7 8 9 10 11 12 13 14 15 16 17 18 19
839
FTUS41 KBGM 230927 AAA
TAFRME
TAF AMD
KRME 230927Z 2309/2406 31004KT P6SM SKC
     FM231700 28008KT P6SM FEW200
     FM232300 11003KT P6SM BKN150=

USA.gov is the U.S. government's official web portal to all federal, state and local government web resources and services.